Emerald Isle, North Carolina
Current Conditions -  °F | °C
As of 9:13 PM on Monday 22 Dec 2014 (Local Time) from KNJM Reporting Station
Haze Haze  
Wind Chill: 43°   Ceiling: 200
Heat Index: 47°   Visibility: 1.5mi
Dew Point: 46°   Wind: 8mph
Humidity: 97%   Direction: 320°NW
Pressure: 30.03"   Gusts: NA
Location:  34.68°N, 76.95°W
Report Text: KNJM 230213Z AUTO 32007KT 1 1/2SM BR OVC002 08/08 A3003 RMK AO2 T00830078 $
Loading
Personal Weather Stations






























Interactive Weather Map New forecast layout! Learn more

10-Day Weather Forecast

Advertisements
Track Severe Weather on mobile